• Join FlightAware (Why Join?)
  • Login
  • US Flag 
05:51PM EDT


 

Airport Tracker/Info


-or-


 

Live Flight TrackerFlight Track Log ✈ FFT933 ✈ 08-Sep-2013 ✈ KTTN - KATL

Flight Track Log - Related Links

Times and Time Zones

All times are in EDT time to prevent confusion due to time zone crossing. See the FFT933 flight status page for this flight to view local times or setup timezone preferences in your user account.

Time Position Orientation Groundspeed Altitude Reporting Facility
EDT Latitude Longitude Course Direction KTS MPH feet Rate Location/Type
07:41PM 40.2833 -74.8000 294° West 148 170 700  Level Philadelphia TRACON
07:42PM 40.3000 -74.8500 294° West 268 308 2,400 2,460 Climbing Philadelphia TRACON
07:43PM 40.2833 -74.9333 255° West 272 313 6,200 2,400 Climbing Philadelphia TRACON
07:44PM 40.2333 -75.0167 232° Southwest 272 313 7,000 420 Climbing Philadelphia TRACON
07:45PM 40.2000 -75.1000 242° Southwest 278 320 7,000 1,080 Level Philadelphia TRACON
07:46PM 40.1500 -75.1833 232° Southwest 286 329 9,200 960 Climbing Philadelphia TRACON
07:48PM 40.0578 -75.3569 235° Southwest 295 339 10,000 240 Climbing New York Center
07:49PM 39.9767 -75.3514 177° South 269 310 10,000  Level New York Center
07:50PM 39.8939 -75.3381 173° South 281 323 10,000  Level New York Center
07:51PM 39.8611 -75.4250 244° Southwest 232 267 10,000 -60 Level New York Center
07:52PM 39.8547 -75.5328 266° West 252 290 9,900  Descending New York Center
07:53PM 39.8458 -75.6511 264° West 303 349 10,100 1,380 Climbing New York Center
07:54PM 39.8386 -75.7750 266° West 345 397 12,700 2,580 Climbing New York Center
07:55PM 39.8267 -75.9014 263° West 358 412 15,300 1,920 Climbing New York Center
07:56PM 39.8106 -76.0325 261° West 358 412 16,600 1,740 Climbing New York Center
07:57PM 39.8089 -76.1650 269° West 369 425 18,800 1,440 Climbing New York Center
07:58PM 39.8344 -76.2833 286° West 368 423 19,500 1,320 Climbing New York Center
07:59PM 39.8622 -76.4044 287° West 373 429 21,500 1,860 Climbing New York Center
08:00PM 39.8789 -76.5356 279° West 373 429 23,300 1,740 Climbing New York Center
08:01PM 39.8247 -76.6583 240° Southwest 366 421 25,000 1,680 Climbing New York Center
08:02PM 39.7619 -76.7853 237° Southwest 382 440 26,700 1,500 Climbing New York Center
08:03PM 39.7011 -76.9150 239° Southwest 411 473 28,100 1,380 Climbing New York Center
08:04PM 39.6425 -77.0414 239° Southwest 425 489 29,300 1,260 Climbing Washington Center
08:05PM 39.5847 -77.1642 239° Southwest 449 517 30,500 1,320 Climbing Washington Center
08:06PM 39.5222 -77.3025 240° Southwest 449 517 31,900 1,320 Climbing Washington Center
08:07PM 39.4578 -77.4408 239° Southwest 454 522 33,200 1,260 Climbing Washington Center
08:08PM 39.3747 -77.5594 228° Southwest 454 522 34,500 1,140 Climbing Washington Center
08:09PM 39.2708 -77.6558 216° Southwest 449 517 35,600 720 Climbing Washington Center
08:10PM 39.1753 -77.7631 221° Southwest 456 525 36,000 180 Climbing Washington Center
08:11PM 39.0733 -77.8694 219° Southwest 469 540 36,000  Level Washington Center
08:12PM 38.9603 -77.9942 221° Southwest 475 547 36,000  Level Washington Center
08:13PM 38.8581 -78.1028 220° Southwest 480 552 36,000  Level Washington Center
08:14PM 38.7556 -78.2139 220° Southwest 480 552 36,000  Level Washington Center
08:15PM 38.6531 -78.3219 219° Southwest 485 558 36,000  Level Washington Center
08:16PM 38.5483 -78.4322 219° Southwest 485 558 36,000  Level Washington Center
08:17PM 38.4436 -78.5422 219° Southwest 490 564 36,000  Level Washington Center
08:18PM 38.3408 -78.6492 219° Southwest 490 564 36,000  Level Washington Center
08:19PM 38.2506 -78.7486 221° Southwest 490 564 36,000 -60 Level Washington Center
08:20PM 38.1456 -78.8578 219° Southwest 485 558 35,900  Descending Washington Center
08:21PM 38.0317 -78.9767 219° Southwest 491 565 36,000  Climbing Washington Center
08:22PM 37.9264 -79.0853 219° Southwest 491 565 36,000  Level Washington Center
08:23PM 37.8331 -79.2072 226° Southwest 491 565 36,000  Level Washington Center
08:24PM 37.7525 -79.3189 228° Southwest 485 558 36,000  Level Washington Center
08:25PM 37.6567 -79.4478 227° Southwest 478 550 36,000  Level Washington Center
08:26PM 37.5781 -79.5567 228° Southwest 478 550 36,000  Level Washington Center
08:27PM 37.4797 -79.6903 227° Southwest 478 550 36,100  Climbing Washington Center
08:28PM 37.3231 -79.9025 227° Southwest 462 532 36,000 -60 Descending Atlanta Center
08:29PM 37.2272 -80.0328 227° Southwest 462 532 36,000  Level Atlanta Center
08:30PM 37.1394 -80.1492 227° Southwest 462 532 36,000  Level Atlanta Center
08:31PM 37.0533 -80.2678 228° Southwest 462 532 36,000  Level Atlanta Center
08:32PM 36.9653 -80.3836 226° Southwest 462 532 36,000  Level Atlanta Center
08:33PM 36.8869 -80.4911 228° Southwest 462 532 36,000  Level Atlanta Center
08:34PM 36.7986 -80.6064 226° Southwest 462 532 36,000  Level Atlanta Center
08:35PM 36.7122 -80.7217 227° Southwest 457 526 36,000  Level Atlanta Center
08:37PM 36.6342 -80.8238 226° Southwest  Level FlightAware Approximate
08:37PM 36.5267 -80.9694 226° Southwest 463 533 36,000  Level Atlanta Center
08:38PM 36.4358 -81.0867 226° Southwest 463 533 36,000  Level Atlanta Center
08:39PM 36.3489 -81.2058 228° Southwest 463 533 36,000  Level Atlanta Center
08:40PM 36.2617 -81.3194 226° Southwest 463 533 36,000  Level Atlanta Center
08:41PM 36.1706 -81.4383 227° Southwest 463 533 36,000  Level Atlanta Center
08:42PM 36.0811 -81.5569 227° Southwest 463 533 36,000  Level Atlanta Center
08:43PM 35.9917 -81.6725 226° Southwest 463 533 36,000  Level Atlanta Center
08:44PM 35.9022 -81.7906 227° Southwest 469 540 36,000  Level Atlanta Center
08:45PM 35.8103 -81.9058 225° Southwest 469 540 36,000 -300 Level Atlanta Center
08:46PM 35.7183 -82.0233 226° Southwest 467 537 35,400 -540 Descending Atlanta Center
08:47PM 35.6283 -82.1378 226° Southwest 467 537 35,000 -240 Descending Atlanta Center
08:48PM 35.5322 -82.2525 224° Southwest 467 537 35,000 -240 Level Atlanta Center
08:49PM 35.4356 -82.3642 223° Southwest 477 549 34,600 -720 Descending Atlanta Center
08:50PM 35.3389 -82.4731 223° Southwest 482 555 33,600 -1,020 Descending Atlanta Center
08:51PM 35.2444 -82.5817 223° Southwest 477 549 32,600 -1,020 Descending Atlanta Center
08:52PM 35.1494 -82.6797 220° Southwest 466 536 31,600 -1,020 Descending Atlanta Center
08:53PM 35.0547 -82.7878 223° Southwest 466 536 30,600 -960 Descending Atlanta Center
08:54PM 34.9575 -82.8933 222° Southwest 466 536 29,700 -960 Descending Atlanta Center
08:55PM 34.8564 -82.9958 220° Southwest 466 536 28,700 -1,200 Descending Atlanta Center
08:56PM 34.7653 -83.1058 225° Southwest 467 537 27,300 -2,040 Descending Atlanta Center
08:57PM 34.6681 -83.2103 221° Southwest 467 537 24,700 -2,520 Descending Atlanta Center
08:58PM 34.5747 -83.3122 222° Southwest 455 524 22,300 -2,220 Descending Atlanta Center
08:59PM 34.4958 -83.3986 222° Southwest 449 517 20,300 -2,100 Descending Atlanta Center
09:00PM 34.4067 -83.4975 222° Southwest 441 507 18,100 -2,100 Descending Atlanta Center
09:01PM 34.3236 -83.5861 221° Southwest 424 488 16,100 -2,040 Descending Atlanta Center
09:02PM 34.2425 -83.6769 223° Southwest 409 471 14,100 -1,680 Descending Atlanta Center
09:03PM 34.1633 -83.7628 222° Southwest 394 453 12,800 -960 Descending Atlanta Center
09:04PM 34.0967 -83.8331 221° Southwest 351 404 12,200 -660 Descending Atlanta Center
09:05PM 34.0500 -83.8833 222° Southwest 314 361 11,800 -900 Descending Atlanta TRACON
09:06PM 33.9833 -83.9500 220° Southwest 309 356 10,800 -1,020 Descending Atlanta TRACON
09:07PM 33.9333 -84.0167 228° Southwest 307 353 9,900 -1,020 Descending Atlanta TRACON
09:08PM 33.8667 -84.0667 212° Southwest 307 353 8,900 -1,260 Descending Atlanta TRACON
09:08PM 33.8233 -84.0814 196° South 294 338 8,000 -1,680 Descending Atlanta Center
09:09PM 33.7419 -84.0914 186° South 299 344 6,400 -1,620 Descending Atlanta Center
09:10PM 33.6794 -84.1411 214° Southwest 275 316 4,800 -1,200 Descending Atlanta Center
09:11PM 33.6500 -84.2186 245° Southwest 241 277 4,000 -900 Descending Atlanta Center
09:12PM 33.6478 -84.2833 268° West 228 262 3,000 -960 Descending Atlanta Center
09:14PM 33.6500 -84.3667 272° West 141 162 1,700 -900 Descending Atlanta TRACON
09:16PM 33.6367 -84.4279 270° West  Level Estimated